sensor_id;sensor_type;location;lat;lon;timestamp;P1;P2;P0
73546;PMS7003;61807;48.384;-4.386;2023-03-01T00:00:10;1.00;0.00;0.00
73546;PMS7003;61807;48.384;-4.386;2023-03-01T00:02:36;0.00;0.00;0.00
73546;PMS7003;61807;48.384;-4.386;2023-03-01T00:05:01;0.00;0.00;0.00
73546;PMS7003;61807;48.384;-4.386;2023-03-01T00:07:27;0.00;0.00;0.00
73546;PMS7003;61807;48.384;-4.386;2023-03-01T00:09:53;0.00;0.00;0.00
73546;PMS7003;61807;48.384;-4.386;2023-03-01T00:12:19;0.00;0.00;0.00
73546;PMS7003;61807;48.384;-4.386;2023-03-01T00:14:44;0.50;0.00;0.00
73546;PMS7003;61807;48.384;-4.386;2023-03-01T00:17:09;0.00;0.00;0.00
73546;PMS7003;61807;48.384;-4.386;2023-03-01T00:19:35;1.75;0.00;0.00
73546;PMS7003;61807;48.384;-4.386;2023-03-01T00:22:00;0.00;0.00;0.00
73546;PMS7003;61807;48.384;-4.386;2023-03-01T00:24:26;0.00;0.00;0.00
73546;PMS7003;61807;48.384;-4.386;2023-03-01T00:26:54;0.00;0.00;0.00
73546;PMS7003;61807;48.384;-4.386;2023-03-01T00:29:21;0.75;0.00;0.00
73546;PMS7003;61807;48.384;-4.386;2023-03-01T00:31:47;1.00;0.00;0.00
73546;PMS7003;61807;48.384;-4.386;2023-03-01T00:34:13;0.00;0.00;0.00
73546;PMS7003;61807;48.384;-4.386;2023-03-01T00:36:38;0.00;0.00;0.00
73546;PMS7003;61807;48.384;-4.386;2023-03-01T00:39:04;1.00;0.00;0.00
73546;PMS7003;61807;48.384;-4.386;2023-03-01T00:41:32;0.25;0.25;0.25
73546;PMS7003;61807;48.384;-4.386;2023-03-01T00:43:59;0.00;0.00;0.00
73546;PMS7003;61807;48.384;-4.386;2023-03-01T00:46:25;1.00;1.00;0.25
73546;PMS7003;61807;48.384;-4.386;2023-03-01T00:48:52;1.25;0.00;0.00
73546;PMS7003;61807;48.384;-4.386;2023-03-01T00:51:22;0.00;0.00;0.00
73546;PMS7003;61807;48.384;-4.386;2023-03-01T00:53:51;0.75;0.75;0.00
73546;PMS7003;61807;48.384;-4.386;2023-03-01T00:56:21;1.00;0.00;0.00
73546;PMS7003;61807;48.384;-4.386;2023-03-01T00:58:47;0.50;0.25;0.00
73546;PMS7003;61807;48.384;-4.386;2023-03-01T01:06:17;1.75;1.00;0.50
73546;PMS7003;61807;48.384;-4.386;2023-03-01T01:08:45;0.25;0.25;0.00
73546;PMS7003;61807;48.384;-4.386;2023-03-01T01:11:12;1.50;0.25;0.00
73546;PMS7003;61807;48.384;-4.386;2023-03-01T01:13:38;2.00;0.00;0.00
73546;PMS7003;61807;48.384;-4.386;2023-03-01T01:16:04;1.25;1.25;1.00
73546;PMS7003;61807;48.384;-4.386;2023-03-01T01:18:30;1.75;1.75;1.00
73546;PMS7003;61807;48.384;-4.386;2023-03-01T01:20:56;5.50;1.00;1.00
73546;PMS7003;61807;48.384;-4.386;2023-03-01T01:23:21;1.25;1.00;1.00
73546;PMS7003;61807;48.384;-4.386;2023-03-01T01:25:47;1.00;1.00;0.75
73546;PMS7003;61807;48.384;-4.386;2023-03-01T01:28:12;4.00;2.25;1.50
73546;PMS7003;61807;48.384;-4.386;2023-03-01T01:30:37;2.00;2.00;1.00
73546;PMS7003;61807;48.384;-4.386;2023-03-01T01:33:03;6.00;3.50;2.00
73546;PMS7003;61807;48.384;-4.386;2023-03-01T01:35:28;4.25;2.75;1.25
73546;PMS7003;61807;48.384;-4.386;2023-03-01T01:37:53;5.00;3.25;1.00
73546;PMS7003;61807;48.384;-4.386;2023-03-01T01:40:19;4.75;2.50;1.25
73546;PMS7003;61807;48.384;-4.386;2023-03-01T01:42:44;3.50;2.00;2.00
73546;PMS7003;61807;48.384;-4.386;2023-03-01T01:48:00;12.50;3.25;2.00
73546;PMS7003;61807;48.384;-4.386;2023-03-01T01:50:29;8.75;5.50;3.25
73546;PMS7003;61807;48.384;-4.386;2023-03-01T01:53:03;9.25;7.25;5.75
73546;PMS7003;61807;48.384;-4.386;2023-03-01T01:55:33;18.25;7.75;5.00
73546;PMS7003;61807;48.384;-4.386;2023-03-01T01:58:02;12.00;9.75;6.00
73546;PMS7003;61807;48.384;-4.386;2023-03-01T02:00:32;17.25;14.00;7.00
73546;PMS7003;61807;48.384;-4.386;2023-03-01T02:03:07;17.00;13.00;7.00
73546;PMS7003;61807;48.384;-4.386;2023-03-01T02:05:50;18.50;12.50;8.00
73546;PMS7003;61807;48.384;-4.386;2023-03-01T02:08:19;21.25;14.25;9.50
73546;PMS7003;61807;48.384;-4.386;2023-03-01T02:10:46;21.75;15.00;8.50
73546;PMS7003;61807;48.384;-4.386;2023-03-01T02:13:14;18.50;16.75;11.25
73546;PMS7003;61807;48.384;-4.386;2023-03-01T02:15:40;18.75;16.50;9.00
73546;PMS7003;61807;48.384;-4.386;2023-03-01T02:18:08;31.50;21.50;9.75
73546;PMS7003;61807;48.384;-4.386;2023-03-01T02:23:30;20.00;13.50;8.00
73546;PMS7003;61807;48.384;-4.386;2023-03-01T02:25:57;21.75;16.50;9.75
73546;PMS7003;61807;48.384;-4.386;2023-03-01T02:28:34;19.00;16.00;10.00
73546;PMS7003;61807;48.384;-4.386;2023-03-01T02:31:01;26.00;22.00;12.00
73546;PMS7003;61807;48.384;-4.386;2023-03-01T02:33:46;22.25;16.50;9.50
73546;PMS7003;61807;48.384;-4.386;2023-03-01T02:36:20;18.25;17.00;12.00
73546;PMS7003;61807;48.384;-4.386;2023-03-01T02:38:50;22.75;19.75;10.00
73546;PMS7003;61807;48.384;-4.386;2023-03-01T02:41:18;20.75;16.00;10.00
73546;PMS7003;61807;48.384;-4.386;2023-03-01T02:43:45;24.25;17.25;10.50
73546;PMS7003;61807;48.384;-4.386;2023-03-01T02:46:15;18.25;13.75;10.25
73546;PMS7003;61807;48.384;-4.386;2023-03-01T02:48:48;28.25;13.50;6.50
73546;PMS7003;61807;48.384;-4.386;2023-03-01T02:57:00;31.00;18.75;10.50
73546;PMS7003;61807;48.384;-4.386;2023-03-01T02:59:30;17.50;17.00;9.00
73546;PMS7003;61807;48.384;-4.386;2023-03-01T03:02:04;23.25;18.25;9.00
73546;PMS7003;61807;48.384;-4.386;2023-03-01T03:04:33;19.75;18.75;10.25
73546;PMS7003;61807;48.384;-4.386;2023-03-01T03:06:58;27.75;20.50;10.00
73546;PMS7003;61807;48.384;-4.386;2023-03-01T03:09:24;36.50;23.00;11.50
73546;PMS7003;61807;48.384;-4.386;2023-03-01T03:11:49;15.50;13.25;8.25
73546;PMS7003;61807;48.384;-4.386;2023-03-01T03:14:16;20.75;16.00;9.25
73546;PMS7003;61807;48.384;-4.386;2023-03-01T03:16:42;22.25;17.75;9.00
73546;PMS7003;61807;48.384;-4.386;2023-03-01T03:19:10;20.00;17.25;12.00
73546;PMS7003;61807;48.384;-4.386;2023-03-01T03:21:35;25.25;14.50;9.00
73546;PMS7003;61807;48.384;-4.386;2023-03-01T03:24:01;26.00;20.00;9.50
73546;PMS7003;61807;48.384;-4.386;2023-03-01T03:26:27;22.25;18.50;8.50
73546;PMS7003;61807;48.384;-4.386;2023-03-01T03:28:52;19.75;16.50;9.75
73546;PMS7003;61807;48.384;-4.386;2023-03-01T03:31:18;26.00;18.75;9.00
73546;PMS7003;61807;48.384;-4.386;2023-03-01T03:33:43;26.50;19.25;9.75
73546;PMS7003;61807;48.384;-4.386;2023-03-01T03:36:08;28.50;21.00;10.00
73546;PMS7003;61807;48.384;-4.386;2023-03-01T03:38:42;23.50;18.25;13.00
73546;PMS7003;61807;48.384;-4.386;2023-03-01T03:41:08;28.75;18.50;10.00
73546;PMS7003;61807;48.384;-4.386;2023-03-01T03:43:35;23.75;18.25;10.75
73546;PMS7003;61807;48.384;-4.386;2023-03-01T03:46:02;20.75;18.50;11.50
73546;PMS7003;61807;48.384;-4.386;2023-03-01T03:48:33;25.25;19.50;10.25
73546;PMS7003;61807;48.384;-4.386;2023-03-01T03:50:59;24.00;19.50;10.25
73546;PMS7003;61807;48.384;-4.386;2023-03-01T03:53:25;17.50;15.25;11.00
73546;PMS7003;61807;48.384;-4.386;2023-03-01T03:55:52;25.25;20.75;11.75
73546;PMS7003;61807;48.384;-4.386;2023-03-01T03:58:19;25.25;21.00;10.75
73546;PMS7003;61807;48.384;-4.386;2023-03-01T04:00:46;32.25;18.50;11.00
73546;PMS7003;61807;48.384;-4.386;2023-03-01T04:03:15;27.25;20.50;11.75
73546;PMS7003;61807;48.384;-4.386;2023-03-01T04:05:41;19.25;16.25;9.00
73546;PMS7003;61807;48.384;-4.386;2023-03-01T04:08:07;28.75;19.75;9.75
73546;PMS7003;61807;48.384;-4.386;2023-03-01T04:10:35;26.00;20.00;10.25
73546;PMS7003;61807;48.384;-4.386;2023-03-01T04:13:02;34.75;21.50;12.75
73546;PMS7003;61807;48.384;-4.386;2023-03-01T04:15:30;30.25;22.50;12.25
73546;PMS7003;61807;48.384;-4.386;2023-03-01T04:17:57;24.50;18.00;7.00
73546;PMS7003;61807;48.384;-4.386;2023-03-01T04:20:24;24.00;21.50;11.00
73546;PMS7003;61807;48.384;-4.386;2023-03-01T04:25:22;26.75;16.25;9.50
73546;PMS7003;61807;48.384;-4.386;2023-03-01T04:27:48;29.25;22.00;13.00
73546;PMS7003;61807;48.384;-4.386;2023-03-01T04:30:13;28.50;23.75;13.00
73546;PMS7003;61807;48.384;-4.386;2023-03-01T04:32:39;35.50;24.50;9.00
73546;PMS7003;61807;48.384;-4.386;2023-03-01T04:35:04;30.25;22.25;12.50
73546;PMS7003;61807;48.384;-4.386;2023-03-01T04:37:30;25.00;17.25;9.00
73546;PMS7003;61807;48.384;-4.386;2023-03-01T04:39:55;27.00;19.50;12.00
73546;PMS7003;61807;48.384;-4.386;2023-03-01T04:42:21;28.50;22.25;13.00
73546;PMS7003;61807;48.384;-4.386;2023-03-01T04:44:46;32.75;23.50;13.00
73546;PMS7003;61807;48.384;-4.386;2023-03-01T04:47:12;29.75;26.00;12.25
73546;PMS7003;61807;48.384;-4.386;2023-03-01T04:49:37;29.00;23.25;12.00
73546;PMS7003;61807;48.384;-4.386;2023-03-01T04:52:03;27.00;20.25;9.00
73546;PMS7003;61807;48.384;-4.386;2023-03-01T04:54:32;31.00;24.50;14.75
73546;PMS7003;61807;48.384;-4.386;2023-03-01T04:56:59;38.50;25.75;12.25
73546;PMS7003;61807;48.384;-4.386;2023-03-01T04:59:26;37.25;29.00;12.00
73546;PMS7003;61807;48.384;-4.386;2023-03-01T05:01:52;27.25;21.00;12.50
73546;PMS7003;61807;48.384;-4.386;2023-03-01T05:04:22;26.25;21.50;13.25
73546;PMS7003;61807;48.384;-4.386;2023-03-01T05:06:48;34.25;19.25;11.00
73546;PMS7003;61807;48.384;-4.386;2023-03-01T05:09:14;33.50;25.50;12.75
73546;PMS7003;61807;48.384;-4.386;2023-03-01T05:11:39;31.50;24.75;12.75
73546;PMS7003;61807;48.384;-4.386;2023-03-01T05:14:05;30.50;23.75;12.25
73546;PMS7003;61807;48.384;-4.386;2023-03-01T05:16:32;39.00;25.50;12.25
73546;PMS7003;61807;48.384;-4.386;2023-03-01T05:18:58;30.50;25.00;12.50
73546;PMS7003;61807;48.384;-4.386;2023-03-01T05:21:24;30.75;19.50;2.75
73546;PMS7003;61807;48.384;-4.386;2023-03-01T05:23:50;34.75;23.75;12.50
73546;PMS7003;61807;48.384;-4.386;2023-03-01T05:26:17;35.25;31.50;14.25
73546;PMS7003;61807;48.384;-4.386;2023-03-01T05:28:44;38.00;30.00;15.00
73546;PMS7003;61807;48.384;-4.386;2023-03-01T05:31:10;37.75;26.00;15.75
73546;PMS7003;61807;48.384;-4.386;2023-03-01T05:33:36;38.00;27.75;15.25
73546;PMS7003;61807;48.384;-4.386;2023-03-01T05:36:03;35.25;24.75;12.50
73546;PMS7003;61807;48.384;-4.386;2023-03-01T05:38:29;33.00;25.00;11.75
73546;PMS7003;61807;48.384;-4.386;2023-03-01T05:40:54;41.75;28.00;13.25
73546;PMS7003;61807;48.384;-4.386;2023-03-01T05:43:20;47.25;31.25;16.00
73546;PMS7003;61807;48.384;-4.386;2023-03-01T05:45:45;33.25;26.75;16.00
73546;PMS7003;61807;48.384;-4.386;2023-03-01T05:48:12;46.75;35.25;19.75
73546;PMS7003;61807;48.384;-4.386;2023-03-01T05:50:39;46.25;31.00;15.50
73546;PMS7003;61807;48.384;-4.386;2023-03-01T05:53:10;34.00;25.00;13.25
73546;PMS7003;61807;48.384;-4.386;2023-03-01T05:55:40;36.00;26.75;15.50
73546;PMS7003;61807;48.384;-4.386;2023-03-01T05:58:07;41.00;27.25;13.25
73546;PMS7003;61807;48.384;-4.386;2023-03-01T06:00:39;32.75;22.75;12.00
73546;PMS7003;61807;48.384;-4.386;2023-03-01T06:03:04;29.50;21.00;12.50
73546;PMS7003;61807;48.384;-4.386;2023-03-01T06:05:30;27.50;24.75;12.25
73546;PMS7003;61807;48.384;-4.386;2023-03-01T06:07:58;34.50;24.50;12.75
73546;PMS7003;61807;48.384;-4.386;2023-03-01T06:10:24;34.00;24.50;12.50
73546;PMS7003;61807;48.384;-4.386;2023-03-01T06:12:57;38.00;31.25;18.00
73546;PMS7003;61807;48.384;-4.386;2023-03-01T06:15:24;29.25;24.50;13.50
73546;PMS7003;61807;48.384;-4.386;2023-03-01T06:17:49;31.75;19.25;10.50
73546;PMS7003;61807;48.384;-4.386;2023-03-01T06:20:20;39.00;26.75;12.25
73546;PMS7003;61807;48.384;-4.386;2023-03-01T06:22:47;40.75;26.25;12.25
73546;PMS7003;61807;48.384;-4.386;2023-03-01T06:25:14;39.25;23.50;14.00
73546;PMS7003;61807;48.384;-4.386;2023-03-01T06:27:42;40.25;31.00;15.25
73546;PMS7003;61807;48.384;-4.386;2023-03-01T06:30:08;42.25;26.00;15.50
73546;PMS7003;61807;48.384;-4.386;2023-03-01T06:32:35;33.50;30.50;12.00
73546;PMS7003;61807;48.384;-4.386;2023-03-01T06:35:02;47.00;32.50;15.25
73546;PMS7003;61807;48.384;-4.386;2023-03-01T06:37:28;43.50;34.50;19.00
73546;PMS7003;61807;48.384;-4.386;2023-03-01T06:39:54;38.00;30.75;16.25
73546;PMS7003;61807;48.384;-4.386;2023-03-01T06:42:19;41.75;35.00;17.00
73546;PMS7003;61807;48.384;-4.386;2023-03-01T06:44:44;35.50;28.00;12.25
73546;PMS7003;61807;48.384;-4.386;2023-03-01T06:47:10;32.50;27.25;15.00
73546;PMS7003;61807;48.384;-4.386;2023-03-01T06:49:36;43.00;32.25;16.00
73546;PMS7003;61807;48.384;-4.386;2023-03-01T06:52:01;29.50;26.75;13.00
73546;PMS7003;61807;48.384;-4.386;2023-03-01T06:54:27;36.00;26.00;12.50
73546;PMS7003;61807;48.384;-4.386;2023-03-01T06:56:52;34.75;25.00;13.50
73546;PMS7003;61807;48.384;-4.386;2023-03-01T06:59:18;24.50;19.50;11.75
73546;PMS7003;61807;48.384;-4.386;2023-03-01T07:01:43;27.75;23.00;12.00
73546;PMS7003;61807;48.384;-4.386;2023-03-01T07:04:09;34.75;23.25;13.00
73546;PMS7003;61807;48.384;-4.386;2023-03-01T07:06:35;31.50;23.75;13.00
73546;PMS7003;61807;48.384;-4.386;2023-03-01T07:09:01;30.75;23.25;13.00
73546;PMS7003;61807;48.384;-4.386;2023-03-01T07:11:26;33.75;26.00;13.00
73546;PMS7003;61807;48.384;-4.386;2023-03-01T07:13:52;42.25;29.00;14.25
73546;PMS7003;61807;48.384;-4.386;2023-03-01T07:16:17;38.25;24.00;12.25
73546;PMS7003;61807;48.384;-4.386;2023-03-01T07:18:43;35.25;23.75;12.00
73546;PMS7003;61807;48.384;-4.386;2023-03-01T07:21:09;37.25;27.00;14.00
73546;PMS7003;61807;48.384;-4.386;2023-03-01T07:23:36;41.25;29.00;16.00
73546;PMS7003;61807;48.384;-4.386;2023-03-01T07:26:02;41.25;29.75;15.00
73546;PMS7003;61807;48.384;-4.386;2023-03-01T07:28:28;49.50;33.50;15.75
73546;PMS7003;61807;48.384;-4.386;2023-03-01T07:30:53;42.75;32.00;12.75
73546;PMS7003;61807;48.384;-4.386;2023-03-01T07:33:19;31.25;27.00;15.50
73546;PMS7003;61807;48.384;-4.386;2023-03-01T07:35:45;33.50;26.25;14.25
73546;PMS7003;61807;48.384;-4.386;2023-03-01T07:38:10;31.00;21.25;12.50
73546;PMS7003;61807;48.384;-4.386;2023-03-01T07:40:36;28.00;19.75;12.00
73546;PMS7003;61807;48.384;-4.386;2023-03-01T07:43:01;34.25;22.75;15.75
73546;PMS7003;61807;48.384;-4.386;2023-03-01T07:45:27;24.75;20.50;10.50
73546;PMS7003;61807;48.384;-4.386;2023-03-01T07:47:53;28.75;20.25;13.75
73546;PMS7003;61807;48.384;-4.386;2023-03-01T07:50:20;28.00;25.25;13.50
73546;PMS7003;61807;48.384;-4.386;2023-03-01T07:52:46;27.00;23.00;12.00
73546;PMS7003;61807;48.384;-4.386;2023-03-01T07:55:13;26.75;24.25;10.00
73546;PMS7003;61807;48.384;-4.386;2023-03-01T07:57:38;33.25;25.00;14.00
73546;PMS7003;61807;48.384;-4.386;2023-03-01T08:00:04;31.50;24.75;13.25
73546;PMS7003;61807;48.384;-4.386;2023-03-01T08:02:31;38.00;23.00;12.75
73546;PMS7003;61807;48.384;-4.386;2023-03-01T08:04:56;24.00;18.25;10.50
73546;PMS7003;61807;48.384;-4.386;2023-03-01T08:07:22;27.75;22.50;11.50
73546;PMS7003;61807;48.384;-4.386;2023-03-01T08:09:47;22.50;20.00;12.00
73546;PMS7003;61807;48.384;-4.386;2023-03-01T08:12:12;26.25;17.50;10.75
73546;PMS7003;61807;48.384;-4.386;2023-03-01T08:14:38;21.25;19.00;12.00
73546;PMS7003;61807;48.384;-4.386;2023-03-01T08:17:03;21.50;17.50;10.00
73546;PMS7003;61807;48.384;-4.386;2023-03-01T08:19:29;17.50;13.25;8.75
73546;PMS7003;61807;48.384;-4.386;2023-03-01T08:21:55;25.75;18.25;12.75
73546;PMS7003;61807;48.384;-4.386;2023-03-01T08:24:23;17.75;17.00;10.00
73546;PMS7003;61807;48.384;-4.386;2023-03-01T08:26:48;32.25;20.75;13.00
73546;PMS7003;61807;48.384;-4.386;2023-03-01T08:29:14;27.25;23.25;13.25
73546;PMS7003;61807;48.384;-4.386;2023-03-01T08:31:39;31.00;25.00;14.00
73546;PMS7003;61807;48.384;-4.386;2023-03-01T08:34:06;43.25;27.25;15.00
73546;PMS7003;61807;48.384;-4.386;2023-03-01T08:36:37;44.25;27.25;14.25
73546;PMS7003;61807;48.384;-4.386;2023-03-01T08:39:05;23.25;22.00;14.50
73546;PMS7003;61807;48.384;-4.386;2023-03-01T08:41:32;27.75;23.25;15.00
73546;PMS7003;61807;48.384;-4.386;2023-03-01T08:43:58;26.50;22.00;14.25
73546;PMS7003;61807;48.384;-4.386;2023-03-01T08:46:31;23.25;22.00;13.50
73546;PMS7003;61807;48.384;-4.386;2023-03-01T08:49:03;23.50;19.50;13.50
73546;PMS7003;61807;48.384;-4.386;2023-03-01T08:51:30;30.25;24.75;14.75
73546;PMS7003;61807;48.384;-4.386;2023-03-01T08:53:57;34.00;25.75;16.25
73546;PMS7003;61807;48.384;-4.386;2023-03-01T08:56:23;30.50;24.50;17.00
73546;PMS7003;61807;48.384;-4.386;2023-03-01T08:58:48;39.25;27.75;17.25
73546;PMS7003;61807;48.384;-4.386;2023-03-01T09:01:15;37.25;29.00;18.00
73546;PMS7003;61807;48.384;-4.386;2023-03-01T09:03:43;35.25;28.25;17.75
73546;PMS7003;61807;48.384;-4.386;2023-03-01T09:06:09;36.00;27.50;16.00
73546;PMS7003;61807;48.384;-4.386;2023-03-01T09:08:39;32.00;26.25;17.75
73546;PMS7003;61807;48.384;-4.386;2023-03-01T09:11:07;30.75;24.50;16.50
73546;PMS7003;61807;48.384;-4.386;2023-03-01T09:13:35;33.50;25.25;17.00
73546;PMS7003;61807;48.384;-4.386;2023-03-01T09:16:01;26.50;23.25;15.00
73546;PMS7003;61807;48.384;-4.386;2023-03-01T09:18:29;25.75;19.50;12.00
73546;PMS7003;61807;48.384;-4.386;2023-03-01T09:21:05;28.50;19.50;13.25
73546;PMS7003;61807;48.384;-4.386;2023-03-01T09:23:32;26.00;23.00;16.00
73546;PMS7003;61807;48.384;-4.386;2023-03-01T09:25:59;26.50;18.50;13.50
73546;PMS7003;61807;48.384;-4.386;2023-03-01T09:28:25;28.00;24.00;14.75
73546;PMS7003;61807;48.384;-4.386;2023-03-01T09:30:50;36.25;23.50;13.25
73546;PMS7003;61807;48.384;-4.386;2023-03-01T09:33:16;30.25;22.00;13.00
73546;PMS7003;61807;48.384;-4.386;2023-03-01T09:35:41;18.75;14.25;11.75
73546;PMS7003;61807;48.384;-4.386;2023-03-01T09:38:11;24.25;18.25;12.75
73546;PMS7003;61807;48.384;-4.386;2023-03-01T09:40:41;19.50;12.25;8.00
73546;PMS7003;61807;48.384;-4.386;2023-03-01T09:46:04;20.00;15.00;11.50
73546;PMS7003;61807;48.384;-4.386;2023-03-01T09:48:46;19.50;17.00;11.50
73546;PMS7003;61807;48.384;-4.386;2023-03-01T09:51:23;26.25;19.00;11.50
73546;PMS7003;61807;48.384;-4.386;2023-03-01T09:53:54;21.25;16.75;11.00
73546;PMS7003;61807;48.384;-4.386;2023-03-01T09:56:24;23.25;17.50;11.25
73546;PMS7003;61807;48.384;-4.386;2023-03-01T10:04:44;23.00;20.25;13.00
73546;PMS7003;61807;48.384;-4.386;2023-03-01T10:07:21;24.50;19.50;11.25
73546;PMS7003;61807;48.384;-4.386;2023-03-01T10:09:53;23.00;16.00;10.75
73546;PMS7003;61807;48.384;-4.386;2023-03-01T10:12:23;32.00;20.75;12.00
73546;PMS7003;61807;48.384;-4.386;2023-03-01T10:17:33;20.75;17.75;12.75
73546;PMS7003;61807;48.384;-4.386;2023-03-01T10:22:51;18.75;15.50;11.75
73546;PMS7003;61807;48.384;-4.386;2023-03-01T10:28:10;18.25;18.25;11.75
73546;PMS7003;61807;48.384;-4.386;2023-03-01T10:30:42;26.50;18.50;12.00
73546;PMS7003;61807;48.384;-4.386;2023-03-01T10:33:25;22.00;19.00;12.25
73546;PMS7003;61807;48.384;-4.386;2023-03-01T10:35:53;22.75;17.00;11.00
73546;PMS7003;61807;48.384;-4.386;2023-03-01T10:38:19;22.00;19.00;13.00
73546;PMS7003;61807;48.384;-4.386;2023-03-01T10:40:55;25.50;19.25;10.50
73546;PMS7003;61807;48.384;-4.386;2023-03-01T10:43:23;27.00;21.50;13.50
73546;PMS7003;61807;48.384;-4.386;2023-03-01T10:45:50;19.00;17.00;12.00
73546;PMS7003;61807;48.384;-4.386;2023-03-01T10:53:32;26.50;22.50;12.00
73546;PMS7003;61807;48.384;-4.386;2023-03-01T10:58:39;31.25;23.25;15.50
73546;PMS7003;61807;48.384;-4.386;2023-03-01T11:03:40;26.25;21.75;12.25
73546;PMS7003;61807;48.384;-4.386;2023-03-01T11:14:05;31.50;25.25;17.50
73546;PMS7003;61807;48.384;-4.386;2023-03-01T11:16:43;32.25;27.25;17.50
73546;PMS7003;61807;48.384;-4.386;2023-03-01T11:22:21;34.25;26.25;16.25
73546;PMS7003;61807;48.384;-4.386;2023-03-01T11:24:27;38.25;29.00;17.50
73546;PMS7003;61807;48.384;-4.386;2023-03-01T11:26:56;29.75;27.25;16.00
73546;PMS7003;61807;48.384;-4.386;2023-03-01T11:29:28;27.25;23.75;14.50
73546;PMS7003;61807;48.384;-4.386;2023-03-01T11:32:01;36.50;27.00;16.00
73546;PMS7003;61807;48.384;-4.386;2023-03-01T11:37:26;33.75;25.00;15.75
73546;PMS7003;61807;48.384;-4.386;2023-03-01T11:40:21;29.75;24.75;15.75
73546;PMS7003;61807;48.384;-4.386;2023-03-01T11:42:53;40.75;33.25;17.00
73546;PMS7003;61807;48.384;-4.386;2023-03-01T11:45:27;37.25;29.25;17.00
73546;PMS7003;61807;48.384;-4.386;2023-03-01T11:50:48;40.50;32.75;18.50
73546;PMS7003;61807;48.384;-4.386;2023-03-01T11:58:27;36.00;28.25;17.00
73546;PMS7003;61807;48.384;-4.386;2023-03-01T12:14:23;30.25;25.75;17.25
73546;PMS7003;61807;48.384;-4.386;2023-03-01T12:19:31;27.75;26.25;15.00
73546;PMS7003;61807;48.384;-4.386;2023-03-01T12:30:25;35.25;27.50;17.50
73546;PMS7003;61807;48.384;-4.386;2023-03-01T12:41:46;36.25;32.00;20.00
73546;PMS7003;61807;48.384;-4.386;2023-03-01T12:52:46;25.75;24.25;17.00
73546;PMS7003;61807;48.384;-4.386;2023-03-01T13:01:05;33.75;30.25;20.00
73546;PMS7003;61807;48.384;-4.386;2023-03-01T13:09:39;25.75;23.25;15.00
73546;PMS7003;61807;48.384;-4.386;2023-03-01T13:15:44;35.00;29.00;14.25
73546;PMS7003;61807;48.384;-4.386;2023-03-01T13:20:30;30.00;27.25;19.25
73546;PMS7003;61807;48.384;-4.386;2023-03-01T13:23:00;30.75;28.75;18.00
73546;PMS7003;61807;48.384;-4.386;2023-03-01T13:25:29;25.50;25.50;17.75
73546;PMS7003;61807;48.384;-4.386;2023-03-01T13:28:32;26.75;24.75;16.25
73546;PMS7003;61807;48.384;-4.386;2023-03-01T13:30:58;25.75;24.00;17.75
73546;PMS7003;61807;48.384;-4.386;2023-03-01T13:35:52;32.00;29.25;18.25
73546;PMS7003;61807;48.384;-4.386;2023-03-01T13:41:02;26.25;23.25;15.75
73546;PMS7003;61807;48.384;-4.386;2023-03-01T13:43:33;27.25;26.75;15.50
73546;PMS7003;61807;48.384;-4.386;2023-03-01T13:46:01;27.25;21.75;14.00
73546;PMS7003;61807;48.384;-4.386;2023-03-01T13:48:37;29.25;27.75;18.00
73546;PMS7003;61807;48.384;-4.386;2023-03-01T13:51:05;31.75;28.50;16.50
73546;PMS7003;61807;48.384;-4.386;2023-03-01T13:53:35;34.00;24.50;16.50
73546;PMS7003;61807;48.384;-4.386;2023-03-01T13:56:20;29.25;24.00;14.00
73546;PMS7003;61807;48.384;-4.386;2023-03-01T13:58:54;32.00;28.25;17.25
73546;PMS7003;61807;48.384;-4.386;2023-03-01T14:01:30;27.00;20.75;13.25
73546;PMS7003;61807;48.384;-4.386;2023-03-01T14:03:58;39.75;27.50;16.00
73546;PMS7003;61807;48.384;-4.386;2023-03-01T14:06:31;30.75;23.50;12.00
73546;PMS7003;61807;48.384;-4.386;2023-03-01T14:11:50;28.00;19.00;15.25
73546;PMS7003;61807;48.384;-4.386;2023-03-01T14:14:36;30.00;26.75;15.00
73546;PMS7003;61807;48.384;-4.386;2023-03-01T14:20:11;26.00;21.75;15.00
73546;PMS7003;61807;48.384;-4.386;2023-03-01T14:22:41;22.75;20.50;15.00
73546;PMS7003;61807;48.384;-4.386;2023-03-01T14:30:41;27.50;25.25;14.75
73546;PMS7003;61807;48.384;-4.386;2023-03-01T14:33:25;27.25;24.00;13.00
73546;PMS7003;61807;48.384;-4.386;2023-03-01T14:38:29;28.33;21.33;14.00
73546;PMS7003;61807;48.384;-4.386;2023-03-01T14:41:06;33.00;25.50;14.25
73546;PMS7003;61807;48.384;-4.386;2023-03-01T14:43:34;31.50;23.75;14.00
73546;PMS7003;61807;48.384;-4.386;2023-03-01T14:46:01;25.00;24.00;14.00
73546;PMS7003;61807;48.384;-4.386;2023-03-01T14:48:26;35.00;27.75;17.50
73546;PMS7003;61807;48.384;-4.386;2023-03-01T14:50:53;32.00;24.25;16.00
73546;PMS7003;61807;48.384;-4.386;2023-03-01T14:53:23;26.50;24.00;15.25
73546;PMS7003;61807;48.384;-4.386;2023-03-01T14:55:52;31.50;25.00;17.00
73546;PMS7003;61807;48.384;-4.386;2023-03-01T14:58:25;33.00;24.00;14.00
73546;PMS7003;61807;48.384;-4.386;2023-03-01T15:00:59;35.00;23.50;15.25
73546;PMS7003;61807;48.384;-4.386;2023-03-01T15:06:08;26.75;21.25;14.50
73546;PMS7003;61807;48.384;-4.386;2023-03-01T15:08:37;26.00;18.25;12.75
73546;PMS7003;61807;48.384;-4.386;2023-03-01T15:13:39;29.50;21.25;13.00
73546;PMS7003;61807;48.384;-4.386;2023-03-01T15:18:51;22.75;18.00;12.75
73546;PMS7003;61807;48.384;-4.386;2023-03-01T15:26:40;22.00;18.00;13.00
73546;PMS7003;61807;48.384;-4.386;2023-03-01T15:29:16;20.00;19.00;13.00
73546;PMS7003;61807;48.384;-4.386;2023-03-01T15:31:52;19.50;17.25;13.00
73546;PMS7003;61807;48.384;-4.386;2023-03-01T15:34:30;27.25;22.50;15.50
73546;PMS7003;61807;48.384;-4.386;2023-03-01T15:36:58;34.50;19.00;13.50
73546;PMS7003;61807;48.384;-4.386;2023-03-01T15:41:54;24.25;18.25;13.50
73546;PMS7003;61807;48.384;-4.386;2023-03-01T15:44:30;26.75;21.25;15.50
73546;PMS7003;61807;48.384;-4.386;2023-03-01T15:46:57;22.25;19.00;12.75
73546;PMS7003;61807;48.384;-4.386;2023-03-01T15:49:41;29.50;24.00;13.75
73546;PMS7003;61807;48.384;-4.386;2023-03-01T15:52:25;24.00;21.75;13.00
73546;PMS7003;61807;48.384;-4.386;2023-03-01T15:54:55;32.00;22.75;14.50
73546;PMS7003;61807;48.384;-4.386;2023-03-01T15:57:25;24.25;16.50;11.75
73546;PMS7003;61807;48.384;-4.386;2023-03-01T15:59:50;21.50;17.75;13.00
73546;PMS7003;61807;48.384;-4.386;2023-03-01T16:02:16;24.50;20.50;13.75
73546;PMS7003;61807;48.384;-4.386;2023-03-01T16:04:41;24.75;19.75;12.00
73546;PMS7003;61807;48.384;-4.386;2023-03-01T16:07:08;22.00;16.75;12.75
73546;PMS7003;61807;48.384;-4.386;2023-03-01T16:09:34;22.25;18.00;13.00
73546;PMS7003;61807;48.384;-4.386;2023-03-01T16:12:00;19.50;12.50;10.50
73546;PMS7003;61807;48.384;-4.386;2023-03-01T16:14:26;27.00;17.75;11.50
73546;PMS7003;61807;48.384;-4.386;2023-03-01T16:16:52;26.25;18.25;13.00
73546;PMS7003;61807;48.384;-4.386;2023-03-01T16:19:17;24.50;19.50;12.00
73546;PMS7003;61807;48.384;-4.386;2023-03-01T16:21:43;20.25;17.00;13.25
73546;PMS7003;61807;48.384;-4.386;2023-03-01T16:24:11;35.75;18.25;13.00
73546;PMS7003;61807;48.384;-4.386;2023-03-01T16:26:37;44.25;37.25;27.75